Time;durP1;ratioP1;P1;durP2;ratioP2;P2;SDS_P1;SDS_P2;PMS_P1;PMS_P2;Temp;Humidity;BMP_temperature;BMP_pressure;BME280_temperature;BME280_humidity;BME280_pressure;Samples;Min_cycle;Max_cycle;Signal;HPM_P1;HPM_P2
2022/01/16 00:00:42;;;;;;;15.13;8.10;;;;;;;-142.91;100.00;56616.03;5062153;28;20266;-67
2022/01/16 00:05:54;;;;;;;12.67;8.40;;;;;;;-142.91;100.00;56616.03;5062735;28;20206;-67
2022/01/16 00:08:22;;;;;;;11.30;7.33;;;;;;;-142.91;100.00;56616.03;5061655;28;20194;-67
2022/01/16 00:10:49;;;;;;;13.27;8.47;;;;;;;-142.91;100.00;56616.03;5061608;28;20261;-67
2022/01/16 00:13:16;;;;;;;12.87;7.97;;;;;;;-142.91;100.00;56616.03;5059794;28;20202;-63
2022/01/16 00:15:44;;;;;;;12.30;7.07;;;;;;;-142.91;100.00;56616.03;5061393;28;20210;-65
2022/01/16 00:18:20;;;;;;;13.83;7.13;;;;;;;-142.91;100.00;56616.03;5061348;28;20211;-67
2022/01/16 00:20:47;;;;;;;15.90;7.53;;;;;;;-142.91;100.00;56616.03;5061318;28;20268;-65
2022/01/16 00:23:22;;;;;;;8.40;6.93;;;;;;;-142.91;100.00;56616.03;5061823;28;20832;-66
2022/01/16 00:25:50;;;;;;;11.30;6.80;;;;;;;-142.91;100.00;56616.03;5061432;28;20201;-64
2022/01/16 00:28:17;;;;;;;11.97;7.60;;;;;;;-142.91;100.00;56616.03;5062227;28;21847;-65
2022/01/16 00:30:44;;;;;;;12.97;8.43;;;;;;;-142.91;100.00;56616.03;5060691;28;20291;-65
2022/01/16 00:33:10;;;;;;;14.87;8.27;;;;;;;-142.91;100.00;56616.03;5061866;28;20199;-66
2022/01/16 00:35:37;;;;;;;10.10;7.03;;;;;;;-142.91;100.00;56616.03;5061438;28;20263;-64
2022/01/16 00:38:04;;;;;;;9.93;7.20;;;;;;;-142.91;100.00;56616.03;5061529;28;20280;-67
2022/01/16 00:40:31;;;;;;;10.50;7.00;;;;;;;-142.91;100.00;56616.03;5059965;28;20736;-68
2022/01/16 00:42:59;;;;;;;12.83;8.43;;;;;;;-142.91;100.00;56616.03;5061062;28;20363;-65
2022/01/16 00:45:28;;;;;;;10.93;8.30;;;;;;;-142.91;100.00;56616.03;5061283;28;20234;-66
2022/01/16 00:47:55;;;;;;;12.07;7.63;;;;;;;-142.91;100.00;56616.03;5060475;28;20607;-67
2022/01/16 00:50:22;;;;;;;10.07;8.07;;;;;;;-142.91;100.00;56616.03;5059856;28;20282;-65
2022/01/16 00:52:49;;;;;;;13.57;9.30;;;;;;;-142.91;100.00;56616.03;5058867;28;20234;-65
2022/01/16 00:55:16;;;;;;;13.03;8.30;;;;;;;-142.91;100.00;56616.03;5059809;28;20291;-66
2022/01/16 00:57:43;;;;;;;12.83;7.77;;;;;;;-142.91;100.00;56616.03;5059896;28;20648;-65
2022/01/16 01:00:12;;;;;;;12.50;7.70;;;;;;;-142.91;100.00;56616.03;5059016;28;20697;-65
2022/01/16 01:02:39;;;;;;;11.20;7.97;;;;;;;-142.91;100.00;56616.03;5058756;28;20238;-67
2022/01/16 01:05:08;;;;;;;11.63;8.07;;;;;;;-142.91;100.00;56616.03;5058797;28;20481;-65
2022/01/16 01:07:34;;;;;;;13.57;8.60;;;;;;;-142.91;100.00;56616.03;5061211;28;20195;-66
2022/01/16 01:10:01;;;;;;;13.33;8.30;;;;;;;-142.91;100.00;56616.03;5059539;28;20240;-69
2022/01/16 01:12:30;;;;;;;12.60;8.27;;;;;;;-142.91;100.00;56616.03;5060244;28;20211;-65
2022/01/16 01:15:08;;;;;;;12.30;8.57;;;;;;;-142.91;100.00;56616.03;5060134;28;20206;-65
2022/01/16 01:17:44;;;;;;;13.90;8.80;;;;;;;-142.91;100.00;56616.03;5060797;28;20198;-65
2022/01/16 01:20:14;;;;;;;9.47;7.40;;;;;;;-142.91;100.00;56616.03;5059909;28;20748;-66
2022/01/16 01:22:40;;;;;;;9.90;7.10;;;;;;;-142.91;100.00;56616.03;5059760;28;20655;-68
2022/01/16 01:25:09;;;;;;;10.73;7.83;;;;;;;-142.91;100.00;56616.03;5060411;28;20229;-66
2022/01/16 01:27:37;;;;;;;11.97;7.90;;;;;;;-142.91;100.00;56616.03;5088854;28;20622;-69
2022/01/16 01:30:06;;;;;;;12.17;8.10;;;;;;;-142.91;100.00;56616.03;5089139;28;20248;-67
2022/01/16 01:32:35;;;;;;;10.83;7.37;;;;;;;-142.91;100.00;56616.03;5088933;28;20190;-68
2022/01/16 01:35:04;;;;;;;9.87;7.50;;;;;;;-142.91;100.00;56616.03;5089337;28;20220;-69
2022/01/16 01:37:31;;;;;;;10.47;7.53;;;;;;;-142.91;100.00;56616.03;5088738;28;20193;-67
2022/01/16 01:39:58;;;;;;;10.53;7.67;;;;;;;-142.91;100.00;56616.03;5087740;28;20230;-64
2022/01/16 01:42:33;;;;;;;10.87;7.30;;;;;;;-142.91;100.00;56616.03;5088808;28;20198;-65
2022/01/16 01:53:19;;;;;;;7.63;6.67;;;;;;;-142.91;100.00;56616.03;5089089;28;20282;-66
2022/01/16 01:55:45;;;;;;;9.13;6.57;;;;;;;-142.91;100.00;56616.03;5089037;28;20198;-65
2022/01/16 01:58:14;;;;;;;6.87;6.20;;;;;;;-142.91;100.00;56616.03;5089325;28;20644;-66
2022/01/16 02:00:41;;;;;;;9.57;7.90;;;;;;;-142.91;100.00;56616.03;5089187;28;20225;-67
2022/01/16 02:03:15;;;;;;;10.07;6.73;;;;;;;-142.91;100.00;56616.03;5089553;28;20209;-66
2022/01/16 02:05:45;;;;;;;11.47;6.97;;;;;;;-142.91;100.00;56616.03;5089220;28;20194;-66
2022/01/16 02:08:12;;;;;;;10.07;6.87;;;;;;;-142.91;100.00;56616.03;5088930;28;20197;-68
2022/01/16 02:10:40;;;;;;;9.63;6.23;;;;;;;-142.91;100.00;56616.03;5089222;28;20197;-67
2022/01/16 02:13:11;;;;;;;8.93;6.40;;;;;;;-142.91;100.00;56616.03;5089276;28;20201;-67
2022/01/16 02:27:57;;;;;;;9.80;7.10;;;;;;;-142.91;100.00;56616.03;5089083;28;20198;-65
2022/01/16 02:35:09;;;;;;;12.57;8.10;;;;;;;-142.91;100.00;56616.03;5070975;28;20197;-63
2022/01/16 02:37:36;;;;;;;12.63;8.80;;;;;;;-142.91;100.00;56616.03;5088797;28;20243;-68
2022/01/16 02:40:14;;;;;;;14.20;9.30;;;;;;;-142.91;100.00;56616.03;5089398;28;20225;-68
2022/01/16 02:42:47;;;;;;;17.07;10.07;;;;;;;-142.91;100.00;56616.03;5089620;28;20193;-66
2022/01/16 02:45:27;;;;;;;17.00;9.90;;;;;;;-142.91;100.00;56616.03;5089564;28;20204;-66
2022/01/16 02:47:53;;;;;;;16.93;10.60;;;;;;;-142.91;100.00;56616.03;5089521;28;20830;-65
2022/01/16 02:50:20;;;;;;;17.67;10.40;;;;;;;-142.91;100.00;56616.03;5089706;28;20255;-68
2022/01/16 02:52:47;;;;;;;13.70;9.57;;;;;;;-142.91;100.00;56616.03;5092615;28;20197;-66
2022/01/16 02:55:15;;;;;;;13.40;8.83;;;;;;;-142.91;100.00;56616.03;5092621;28;20190;-66
2022/01/16 02:57:42;;;;;;;14.03;9.10;;;;;;;-142.91;100.00;56616.03;5091600;28;20200;-70
2022/01/16 03:00:09;;;;;;;12.87;8.87;;;;;;;-142.91;100.00;56616.03;5091708;28;20621;-65
2022/01/16 03:02:36;;;;;;;12.83;9.33;;;;;;;-142.91;100.00;56616.03;5091708;28;20197;-67
2022/01/16 03:05:04;;;;;;;13.83;9.53;;;;;;;-142.91;100.00;56616.03;5092043;28;20261;-67
2022/01/16 03:07:31;;;;;;;13.30;8.57;;;;;;;-142.91;100.00;56616.03;5091960;28;20250;-69
2022/01/16 03:10:12;;;;;;;17.47;9.07;;;;;;;-142.91;100.00;56616.03;5091791;28;20263;-65
2022/01/16 03:12:40;;;;;;;12.90;9.10;;;;;;;-142.91;100.00;56616.03;5093690;28;20224;-66
2022/01/16 03:15:07;;;;;;;12.00;8.70;;;;;;;-142.91;100.00;56616.03;5093569;28;20197;-68
2022/01/16 03:17:40;;;;;;;12.27;8.53;;;;;;;-142.91;100.00;56616.03;5093834;28;20738;-69
2022/01/16 03:22:52;;;;;;;13.20;7.57;;;;;;;-142.91;100.00;56616.03;5093716;28;20259;-63
2022/01/16 03:25:19;;;;;;;11.60;8.17;;;;;;;-142.91;100.00;56616.03;5093357;28;20194;-65
2022/01/16 03:27:49;;;;;;;11.70;8.77;;;;;;;-142.91;100.00;56616.03;5093465;28;20293;-68
2022/01/16 03:30:16;;;;;;;18.13;9.10;;;;;;;-142.91;100.00;56616.03;5093528;28;20243;-69
2022/01/16 03:32:43;;;;;;;16.23;9.37;;;;;;;-142.91;100.00;56616.03;5093707;28;20197;-65
2022/01/16 03:35:10;;;;;;;16.73;9.97;;;;;;;-142.91;100.00;56616.03;5093529;28;20255;-67
2022/01/16 03:37:36;;;;;;;11.33;7.80;;;;;;;-142.91;100.00;56616.03;5093072;28;20258;-69
2022/01/16 03:40:07;;;;;;;13.77;9.67;;;;;;;-142.91;100.00;56616.03;5092902;28;20290;-67
2022/01/16 03:42:36;;;;;;;12.73;8.40;;;;;;;-142.91;100.00;56616.03;5093365;28;20198;-67
2022/01/16 03:45:05;;;;;;;13.57;9.57;;;;;;;-142.91;100.00;56616.03;5093119;28;20231;-65
2022/01/16 03:47:31;;;;;;;13.07;9.00;;;;;;;-142.91;100.00;56616.03;5093256;28;20255;-67
2022/01/16 03:49:58;;;;;;;12.97;8.67;;;;;;;-142.91;100.00;56616.03;5092936;28;20201;-66
2022/01/16 03:52:25;;;;;;;10.53;8.37;;;;;;;-142.91;100.00;56616.03;5092693;28;20202;-68
2022/01/16 03:54:52;;;;;;;12.57;9.60;;;;;;;-142.91;100.00;56616.03;5092616;28;20725;-68
2022/01/16 03:57:19;;;;;;;12.53;8.80;;;;;;;-142.91;100.00;56616.03;5092753;28;20194;-67
2022/01/16 03:59:45;;;;;;;12.13;8.63;;;;;;;-142.91;100.00;56616.03;5092504;28;20189;-66
2022/01/16 04:02:14;;;;;;;10.30;8.30;;;;;;;-142.91;100.00;56616.03;5092456;28;20806;-69
2022/01/16 04:04:41;;;;;;;14.05;8.88;;;;;;;-142.91;100.00;56616.03;5091411;28;20198;-65
2022/01/16 04:07:11;;;;;;;12.20;8.77;;;;;;;-142.91;100.00;56616.03;5092600;28;20664;-67
2022/01/16 04:09:38;;;;;;;10.83;8.10;;;;;;;-142.91;100.00;56616.03;5092728;28;20198;-67
2022/01/16 04:12:07;;;;;;;14.30;10.23;;;;;;;-142.91;100.00;56616.03;5092269;28;20197;-66
2022/01/16 04:17:18;;;;;;;14.37;10.03;;;;;;;-142.91;100.00;56616.03;5091938;28;20789;-65
2022/01/16 04:19:46;;;;;;;10.53;8.60;;;;;;;-142.91;100.00;56616.03;5092368;28;20212;-64
2022/01/16 04:22:13;;;;;;;15.53;9.13;;;;;;;-142.91;100.00;56616.03;5092256;28;20354;-66
2022/01/16 04:24:41;;;;;;;10.07;8.70;;;;;;;-142.91;100.00;56616.03;5092350;28;20193;-65
2022/01/16 04:27:10;;;;;;;13.93;9.33;;;;;;;-142.91;100.00;56616.03;5092562;28;20745;-66
2022/01/16 04:29:38;;;;;;;16.03;9.40;;;;;;;-142.91;100.00;56616.03;5091948;28;20701;-68
2022/01/16 04:32:06;;;;;;;15.30;9.70;;;;;;;-142.91;100.00;56616.03;5091901;28;20198;-67
2022/01/16 04:34:35;;;;;;;16.20;9.43;;;;;;;-142.91;100.00;56616.03;5089942;28;20194;-69
2022/01/16 04:37:02;;;;;;;11.10;8.73;;;;;;;-142.91;100.00;56616.03;5089836;28;20850;-65
2022/01/16 04:39:32;;;;;;;10.50;9.27;;;;;;;-142.91;100.00;56616.03;5089881;28;20202;-68
2022/01/16 04:44:43;;;;;;;16.30;9.57;;;;;;;-142.91;100.00;56616.03;5090320;28;20304;-64
2022/01/16 04:47:10;;;;;;;16.10;9.97;;;;;;;-142.91;100.00;56616.03;5090238;28;20190;-67
2022/01/16 04:49:38;;;;;;;15.90;9.03;;;;;;;-142.91;100.00;56616.03;5091883;28;20190;-64
2022/01/16 04:52:06;;;;;;;13.70;9.33;;;;;;;-142.91;100.00;56616.03;5091741;28;20189;-65
2022/01/16 04:54:33;;;;;;;12.23;8.67;;;;;;;-142.91;100.00;56616.03;5091727;28;20298;-66
2022/01/16 04:57:00;;;;;;;13.70;9.80;;;;;;;-142.91;100.00;56616.03;5091842;28;20197;-67
2022/01/16 04:59:26;;;;;;;14.63;9.67;;;;;;;-142.91;100.00;56616.03;5091453;28;20248;-68
2022/01/16 05:01:53;;;;;;;11.07;8.38;;;;;;;-142.91;100.00;56616.03;5091520;28;20282;-68
2022/01/16 05:04:20;;;;;;;15.17;9.73;;;;;;;-142.91;100.00;56616.03;5091471;28;20258;-66
2022/01/16 05:06:49;;;;;;;10.95;8.73;;;;;;;-142.91;100.00;56616.03;5091486;28;20194;-65
2022/01/16 05:09:16;;;;;;;14.37;9.73;;;;;;;-142.91;100.00;56616.03;5091586;28;20216;-68
2022/01/16 05:11:44;;;;;;;16.50;10.83;;;;;;;-142.91;100.00;56616.03;5091618;28;20193;-66
2022/01/16 05:16:55;;;;;;;16.35;10.80;;;;;;;-142.91;100.00;56616.03;5091536;28;20213;-65
2022/01/16 05:19:22;;;;;;;15.80;9.60;;;;;;;-142.91;100.00;56616.03;5091592;28;20262;-68
2022/01/16 05:21:50;;;;;;;17.87;10.63;;;;;;;-142.91;100.00;56616.03;5091405;28;20286;-64
2022/01/16 05:24:17;;;;;;;17.43;11.00;;;;;;;-142.91;100.00;56616.03;5091433;28;20259;-64
2022/01/16 05:26:45;;;;;;;16.80;11.38;;;;;;;-142.91;100.00;56616.03;5091339;28;20201;-68
2022/01/16 05:29:13;;;;;;;19.10;11.93;;;;;;;-142.91;100.00;56616.03;5091059;28;20255;-65
2022/01/16 05:31:44;;;;;;;16.93;11.70;;;;;;;-142.91;100.00;56616.03;5091190;28;20255;-68
2022/01/16 05:34:11;;;;;;;21.33;12.30;;;;;;;-142.91;100.00;56616.03;5091073;28;20243;-66
2022/01/16 05:36:38;;;;;;;17.53;11.63;;;;;;;-142.91;100.00;56616.03;5091024;28;20190;-65
2022/01/16 05:39:06;;;;;;;19.73;12.97;;;;;;;-142.91;100.00;56616.03;5091233;28;20578;-67
2022/01/16 05:41:32;;;;;;;17.83;12.50;;;;;;;-142.91;100.00;56616.03;5091065;28;20226;-68
2022/01/16 05:43:59;;;;;;;20.37;11.70;;;;;;;-142.91;100.00;56616.03;5090948;28;20197;-65
2022/01/16 05:46:26;;;;;;;22.47;13.40;;;;;;;-142.91;100.00;56616.03;5090937;28;20193;-69
2022/01/16 05:48:53;;;;;;;25.80;14.57;;;;;;;-142.91;100.00;56616.03;5090833;28;20194;-67
2022/01/16 05:51:20;;;;;;;21.93;14.43;;;;;;;-142.91;100.00;56616.03;5091041;28;20194;-68
2022/01/16 05:53:48;;;;;;;26.00;14.90;;;;;;;-142.91;100.00;56616.03;5090991;28;20267;-68
2022/01/16 05:56:16;;;;;;;23.70;14.33;;;;;;;-142.91;100.00;56616.03;5091127;28;20194;-68
2022/01/16 05:58:43;;;;;;;27.90;15.70;;;;;;;-142.91;100.00;56616.03;5090565;28;20263;-66
2022/01/16 06:01:10;;;;;;;23.97;14.17;;;;;;;-142.91;100.00;56616.03;5090456;28;20895;-66
2022/01/16 06:03:36;;;;;;;26.80;15.40;;;;;;;-142.91;100.00;56616.03;5090312;28;20202;-66
2022/01/16 06:06:04;;;;;;;22.60;14.03;;;;;;;-142.91;100.00;56616.03;5089307;28;20247;-67
2022/01/16 06:08:30;;;;;;;25.10;14.43;;;;;;;-142.91;100.00;56616.03;5090503;28;20219;-66
2022/01/16 06:10:57;;;;;;;21.83;13.50;;;;;;;-142.91;100.00;56616.03;5090576;28;20584;-66
2022/01/16 06:13:25;;;;;;;24.30;15.00;;;;;;;-142.91;100.00;56616.03;5090209;28;20255;-65
2022/01/16 06:15:52;;;;;;;25.30;14.87;;;;;;;-142.91;100.00;56616.03;5090232;28;20189;-64
2022/01/16 06:18:19;;;;;;;26.40;15.47;;;;;;;-142.91;100.00;56616.03;5090099;28;20656;-65
2022/01/16 06:20:47;;;;;;;47.53;25.50;;;;;;;-142.91;100.00;56616.03;5090357;28;20711;-65
2022/01/16 06:23:16;;;;;;;46.13;22.77;;;;;;;-142.91;100.00;56616.03;5089063;28;20238;-68
2022/01/16 06:25:44;;;;;;;31.60;15.80;;;;;;;-142.91;100.00;56616.03;5088166;28;20682;-64
2022/01/16 06:28:10;;;;;;;28.13;16.17;;;;;;;-142.91;100.00;56616.03;5092301;28;20198;-69
2022/01/16 06:30:38;;;;;;;24.50;16.27;;;;;;;-142.91;100.00;56616.03;5092215;28;20193;-67
2022/01/16 06:33:06;;;;;;;24.63;15.30;;;;;;;-142.91;100.00;56616.03;5092622;28;20194;-65
2022/01/16 06:35:33;;;;;;;39.33;20.00;;;;;;;-142.91;100.00;56616.03;5092416;28;20576;-67
2022/01/16 06:38:00;;;;;;;44.27;22.30;;;;;;;-142.91;100.00;56616.03;5092879;28;20193;-67
2022/01/16 06:40:27;;;;;;;32.03;18.70;;;;;;;-142.91;100.00;56616.03;5093715;28;20255;-65
2022/01/16 06:42:53;;;;;;;29.13;15.40;;;;;;;-142.91;100.00;56616.03;5094213;28;20305;-67
2022/01/16 06:45:20;;;;;;;29.97;17.03;;;;;;;-142.91;100.00;56616.03;5094201;28;20201;-67
2022/01/16 06:47:48;;;;;;;34.07;17.23;;;;;;;-142.91;100.00;56616.03;5094268;28;20197;-68
2022/01/16 06:50:15;;;;;;;33.33;17.37;;;;;;;-142.91;100.00;56616.03;5094378;28;20552;-64
2022/01/16 06:52:42;;;;;;;32.20;19.50;;;;;;;-142.91;100.00;56616.03;5094145;28;20190;-67
2022/01/16 06:55:09;;;;;;;33.07;19.03;;;;;;;-142.91;100.00;56616.03;5093818;28;20726;-65
2022/01/16 06:57:36;;;;;;;37.27;22.37;;;;;;;-142.91;100.00;56616.03;5094006;28;20197;-65
2022/01/16 07:00:05;;;;;;;29.73;16.27;;;;;;;-142.91;100.00;56616.03;5093831;28;20247;-66
2022/01/16 07:02:32;;;;;;;33.37;19.17;;;;;;;-142.91;100.00;56616.03;5093378;28;20677;-67
2022/01/16 07:05:02;;;;;;;34.67;20.83;;;;;;;-142.91;100.00;56616.03;5093764;28;20664;-66
2022/01/16 07:07:28;;;;;;;32.57;18.63;;;;;;;-142.91;100.00;56616.03;5093504;28;20660;-68
2022/01/16 07:09:55;;;;;;;32.77;19.27;;;;;;;-142.91;100.00;56616.03;5093491;28;20194;-64
2022/01/16 07:12:22;;;;;;;27.80;17.10;;;;;;;-142.91;100.00;56616.03;5093417;28;20194;-65
2022/01/16 07:14:49;;;;;;;37.67;18.13;;;;;;;-142.91;100.00;56616.03;5093817;28;20198;-69
2022/01/16 07:17:15;;;;;;;35.80;19.33;;;;;;;-142.91;100.00;56616.03;5093460;28;20204;-66
2022/01/16 07:19:42;;;;;;;30.57;18.77;;;;;;;-142.91;100.00;56616.03;5093814;28;20251;-66
2022/01/16 07:22:10;;;;;;;36.30;19.07;;;;;;;-142.91;100.00;56616.03;5093369;28;20271;-66
2022/01/16 07:24:37;;;;;;;74.23;33.60;;;;;;;-142.91;100.00;56616.03;5093083;28;20194;-66
2022/01/16 07:27:04;;;;;;;32.17;20.30;;;;;;;-142.91;100.00;56616.03;5093551;28;20193;-65
2022/01/16 07:29:31;;;;;;;41.77;21.83;;;;;;;-142.91;100.00;56616.03;5093309;28;20889;-67
2022/01/16 07:31:59;;;;;;;36.40;19.17;;;;;;;-142.91;100.00;56616.03;5093312;28;20258;-66
2022/01/16 07:34:26;;;;;;;34.93;19.30;;;;;;;-142.91;100.00;56616.03;5093303;28;20198;-68
2022/01/16 07:36:52;;;;;;;30.07;17.73;;;;;;;-142.91;100.00;56616.03;5093086;28;20194;-67
2022/01/16 07:39:21;;;;;;;34.17;17.70;;;;;;;-142.91;100.00;56616.03;5092739;28;20704;-66
2022/01/16 07:41:48;;;;;;;32.47;16.98;;;;;;;-142.91;100.00;56616.03;5093007;28;20225;-66
2022/01/16 07:44:15;;;;;;;37.17;20.08;;;;;;;-142.91;100.00;56616.03;5093093;28;20194;-65
2022/01/16 07:46:41;;;;;;;39.50;20.48;;;;;;;-142.91;100.00;56616.03;5093213;28;20203;-65
2022/01/16 07:49:08;;;;;;;40.00;19.88;;;;;;;-142.91;100.00;56616.03;5092692;28;20645;-67
2022/01/16 07:51:35;;;;;;;36.33;19.63;;;;;;;-142.91;100.00;56616.03;5090246;28;20665;-67
2022/01/16 07:54:02;;;;;;;35.00;19.65;;;;;;;-142.91;100.00;56616.03;5069834;28;20198;-70
2022/01/16 07:56:30;;;;;;;33.90;18.73;;;;;;;-142.91;100.00;56616.03;5072598;28;20202;-65
2022/01/16 07:58:57;;;;;;;46.58;22.38;;;;;;;-142.91;100.00;56616.03;5072833;28;20194;-66
2022/01/16 08:01:23;;;;;;;43.67;22.73;;;;;;;-142.91;100.00;56616.03;5072331;28;20229;-68
2022/01/16 08:03:50;;;;;;;43.70;23.48;;;;;;;-142.91;100.00;56616.03;5072173;28;20268;-67
2022/01/16 08:06:17;;;;;;;37.17;20.35;;;;;;;-142.91;100.00;56616.03;5070655;28;20198;-66
2022/01/16 08:08:44;;;;;;;40.17;21.40;;;;;;;-142.91;100.00;56616.03;5071502;28;20198;-66
2022/01/16 08:11:11;;;;;;;34.05;18.20;;;;;;;-142.91;100.00;56616.03;5072513;28;20199;-66
2022/01/16 08:13:39;;;;;;;24.55;16.13;;;;;;;-142.91;100.00;56616.03;5072231;28;20190;-67
2022/01/16 08:16:06;;;;;;;21.42;13.25;;;;;;;-142.91;100.00;56616.03;5072092;28;20240;-67
2022/01/16 08:18:35;;;;;;;18.67;13.35;;;;;;;-142.91;100.00;56616.03;5072248;28;20227;-66
2022/01/16 08:21:01;;;;;;;25.40;13.43;;;;;;;-142.91;100.00;56616.03;5069806;28;20720;-68
2022/01/16 08:23:28;;;;;;;22.15;14.18;;;;;;;-142.91;100.00;56616.03;5070046;28;20286;-65
2022/01/16 08:25:55;;;;;;;16.52;12.00;;;;;;;-142.91;100.00;56616.03;5070239;28;20198;-66
2022/01/16 08:28:22;;;;;;;17.95;12.63;;;;;;;-142.91;100.00;56616.03;5070231;28;20215;-67
2022/01/16 08:30:50;;;;;;;21.95;13.65;;;;;;;-142.91;100.00;56616.03;5070102;28;20293;-65
2022/01/16 08:33:17;;;;;;;21.50;12.60;;;;;;;-142.91;100.00;56616.03;5070090;28;20194;-67
2022/01/16 08:35:44;;;;;;;24.65;12.85;;;;;;;-142.91;100.00;56616.03;5070931;28;20657;-69
2022/01/16 08:38:10;;;;;;;20.48;11.75;;;;;;;-142.91;100.00;56616.03;5071723;28;20248;-63
2022/01/16 08:40:37;;;;;;;21.58;12.93;;;;;;;-142.91;100.00;56616.03;5071185;28;20778;-68
2022/01/16 08:43:08;;;;;;;15.98;11.00;;;;;;;-142.91;100.00;56616.03;5071101;28;20711;-66
2022/01/16 08:45:36;;;;;;;33.88;16.67;;;;;;;-142.91;100.00;56616.03;5071413;28;20645;-69
2022/01/16 08:48:05;;;;;;;16.27;9.85;;;;;;;-142.91;100.00;56616.03;5071099;28;20202;-69
2022/01/16 08:50:32;;;;;;;15.25;10.98;;;;;;;-142.91;100.00;56616.03;5070883;28;20259;-67
2022/01/16 08:52:59;;;;;;;14.60;10.18;;;;;;;-142.91;100.00;56616.03;5071255;28;20198;-68
2022/01/16 08:55:26;;;;;;;11.88;8.55;;;;;;;-142.91;100.00;56616.03;5071560;28;20248;-67
2022/01/16 08:57:53;;;;;;;14.13;9.20;;;;;;;-142.91;100.00;56616.03;5071043;28;20198;-68
2022/01/16 09:00:20;;;;;;;16.77;9.82;;;;;;;-142.91;100.00;56616.03;5069517;28;20198;-68
2022/01/16 09:02:46;;;;;;;10.40;8.15;;;;;;;-142.91;100.00;56616.03;5068759;28;20290;-67
2022/01/16 09:05:14;;;;;;;8.68;7.78;;;;;;;-142.91;100.00;56616.03;5069985;28;20264;-65
2022/01/16 09:07:41;;;;;;;7.80;6.68;;;;;;;-142.91;100.00;56616.03;5070996;28;20205;-66
2022/01/16 09:10:09;;;;;;;13.98;7.50;;;;;;;-142.91;100.00;56616.03;5069651;28;20294;-65
2022/01/16 09:12:36;;;;;;;9.60;6.78;;;;;;;-142.91;100.00;56616.03;5070679;28;20204;-67
2022/01/16 09:15:07;;;;;;;8.20;6.75;;;;;;;-142.91;100.00;56616.03;5070418;28;20734;-68
2022/01/16 09:17:34;;;;;;;9.02;7.63;;;;;;;-142.91;100.00;56616.03;5068582;28;20922;-68
2022/01/16 09:20:01;;;;;;;11.98;8.80;;;;;;;-142.91;100.00;56616.03;5068775;28;20199;-67
2022/01/16 09:22:30;;;;;;;9.05;7.63;;;;;;;-142.91;100.00;56616.03;5068579;28;20950;-69
2022/01/16 09:24:58;;;;;;;9.63;8.25;;;;;;;-142.91;100.00;56616.03;5069387;28;20194;-67
2022/01/16 09:27:25;;;;;;;12.07;7.63;;;;;;;-142.91;100.00;56616.03;5070616;28;20205;-69
2022/01/16 09:29:52;;;;;;;9.48;7.65;;;;;;;-142.91;100.00;56616.03;5070499;28;20191;-67
2022/01/16 09:32:19;;;;;;;9.55;7.00;;;;;;;-142.91;100.00;56616.03;5070637;28;20247;-65
2022/01/16 09:34:45;;;;;;;7.57;6.63;;;;;;;-142.91;100.00;56616.03;5070459;28;20195;-65
2022/01/16 09:37:12;;;;;;;10.60;6.97;;;;;;;-142.91;100.00;56616.03;5070477;28;20551;-67
2022/01/16 09:39:41;;;;;;;7.10;6.20;;;;;;;-142.91;100.00;56616.03;5070390;28;20283;-64
2022/01/16 09:42:09;;;;;;;11.13;7.43;;;;;;;-142.91;100.00;56616.03;5070056;28;20233;-67
2022/01/16 09:44:39;;;;;;;7.18;6.03;;;;;;;-142.91;100.00;56616.03;5070525;28;20256;-66
2022/01/16 09:47:06;;;;;;;7.75;5.82;;;;;;;-142.91;100.00;56616.03;5070525;28;20251;-67
2022/01/16 09:49:33;;;;;;;8.82;6.38;;;;;;;-142.91;100.00;56616.03;5070447;28;20194;-68
2022/01/16 09:52:00;;;;;;;6.88;6.28;;;;;;;-142.91;100.00;56616.03;5070681;28;20209;-68
2022/01/16 09:54:27;;;;;;;8.57;6.43;;;;;;;-142.91;100.00;56616.03;5070102;28;20194;-68
2022/01/16 09:56:56;;;;;;;7.07;6.38;;;;;;;-142.91;100.00;56616.03;5070171;28;20358;-69
2022/01/16 09:59:22;;;;;;;10.50;6.93;;;;;;;-142.91;100.00;56616.03;5069695;28;20190;-67
2022/01/16 10:01:50;;;;;;;7.88;6.53;;;;;;;-142.91;100.00;56616.03;5068915;28;20281;-67
2022/01/16 10:04:30;;;;;;;16.25;7.30;;;;;;;-142.91;100.00;56616.03;5069925;28;20289;-65
2022/01/16 10:06:59;;;;;;;7.78;6.72;;;;;;;-142.91;100.00;56616.03;5070631;28;20198;-67
2022/01/16 10:09:25;;;;;;;11.65;7.55;;;;;;;-142.91;100.00;56616.03;5070124;28;21062;-68
2022/01/16 10:11:58;;;;;;;8.27;6.75;;;;;;;-142.91;100.00;56616.03;5070520;28;20248;-65
2022/01/16 10:14:37;;;;;;;7.03;6.38;;;;;;;-142.91;100.00;56616.03;5070072;28;20256;-66
2022/01/16 10:17:11;;;;;;;13.63;8.73;;;;;;;-142.91;100.00;56616.03;5070062;28;20668;-65
2022/01/16 10:19:38;;;;;;;9.18;6.97;;;;;;;-142.91;100.00;56616.03;5070131;28;20200;-65
2022/01/16 10:22:06;;;;;;;7.85;6.55;;;;;;;-142.91;100.00;56616.03;5067692;28;20701;-65
2022/01/16 10:24:35;;;;;;;7.72;6.93;;;;;;;-142.91;100.00;56616.03;5068434;28;20202;-66
2022/01/16 10:27:17;;;;;;;9.68;7.07;;;;;;;-142.91;100.00;56616.03;5068500;28;20198;-65
2022/01/16 10:29:46;;;;;;;10.57;7.70;;;;;;;-142.91;100.00;56616.03;5067962;28;20197;-66
2022/01/16 10:32:14;;;;;;;11.68;7.93;;;;;;;-142.91;100.00;56616.03;5068089;28;20206;-68
2022/01/16 10:34:42;;;;;;;10.50;6.82;;;;;;;-142.91;100.00;56616.03;5046577;28;20659;-63
2022/01/16 10:37:25;;;;;;;8.73;7.13;;;;;;;-142.91;100.00;56616.03;5057040;28;20194;-64
2022/01/16 10:39:58;;;;;;;10.10;6.90;;;;;;;-142.91;100.00;56616.03;5057073;28;20734;-66
2022/01/16 10:42:27;;;;;;;6.97;5.97;;;;;;;-142.91;100.00;56616.03;5058590;28;20982;-63
2022/01/16 10:45:04;;;;;;;9.70;7.00;;;;;;;-142.91;100.00;56616.03;5059265;28;21282;-67
2022/01/16 10:47:35;;;;;;;10.35;7.70;;;;;;;-142.91;100.00;56616.03;5059694;28;20214;-69
2022/01/16 10:50:06;;;;;;;15.50;8.30;;;;;;;-142.91;100.00;56616.03;5058298;28;20673;-68
2022/01/16 10:52:33;;;;;;;12.48;8.60;;;;;;;-142.91;100.00;56616.03;5058226;28;20255;-72
2022/01/16 10:55:10;;;;;;;13.10;8.25;;;;;;;-142.91;100.00;56616.03;5057858;28;20206;-72
2022/01/16 10:57:38;;;;;;;14.57;7.88;;;;;;;-142.91;100.00;56616.03;5057163;28;20287;-69
2022/01/16 11:00:14;;;;;;;12.13;7.80;;;;;;;-142.91;100.00;56616.03;5058306;28;20214;-69
2022/01/16 11:02:44;;;;;;;9.88;8.07;;;;;;;-142.91;100.00;56616.03;5056912;28;20257;-69
2022/01/16 11:05:14;;;;;;;7.85;7.15;;;;;;;-142.91;100.00;56616.03;5057731;28;20677;-71
2022/01/16 11:07:42;;;;;;;9.93;7.47;;;;;;;-142.91;100.00;56616.03;5057534;28;20566;-70
2022/01/16 11:10:26;;;;;;;10.43;7.90;;;;;;;-142.91;100.00;56616.03;5058195;28;20199;-71
2022/01/16 11:12:55;;;;;;;12.35;8.45;;;;;;;-142.91;100.00;56616.03;5059941;28;20198;-71
2022/01/16 11:15:22;;;;;;;10.63;7.78;;;;;;;-142.91;100.00;56616.03;5062120;28;20323;-71
2022/01/16 11:17:49;;;;;;;8.98;7.78;;;;;;;-142.91;100.00;56616.03;5061877;28;20649;-72
2022/01/16 11:20:18;;;;;;;10.35;8.10;;;;;;;-142.91;100.00;56616.03;5062253;28;20234;-70
2022/01/16 11:23:00;;;;;;;13.20;8.20;;;;;;;-142.91;100.00;56616.03;5062135;28;20292;-71
2022/01/16 11:25:33;;;;;;;8.93;7.95;;;;;;;-142.91;100.00;56616.03;5062673;28;20210;-69
2022/01/16 11:28:03;;;;;;;10.95;8.23;;;;;;;-142.91;100.00;56616.03;5061817;28;21553;-70
2022/01/16 11:30:31;;;;;;;10.93;8.35;;;;;;;-142.91;100.00;56616.03;5061928;28;20210;-68
2022/01/16 11:33:00;;;;;;;9.95;8.50;;;;;;;-142.91;100.00;56616.03;5061206;28;20230;-71
2022/01/16 11:35:28;;;;;;;22.35;11.00;;;;;;;-142.91;100.00;56616.03;5060804;28;20206;-70
2022/01/16 11:37:55;;;;;;;11.52;7.65;;;;;;;-142.91;100.00;56616.03;5062214;28;20202;-69
2022/01/16 11:40:27;;;;;;;9.82;7.72;;;;;;;-142.91;100.00;56616.03;5062091;28;20226;-69
2022/01/16 11:43:18;;;;;;;13.98;8.52;;;;;;;-142.91;100.00;56616.03;5061935;28;20234;-73